createdAt,value
2017-06-15T00:00:53.584Z,17.80
2017-06-15T00:03:21.062Z,17.70
2017-06-15T00:05:48.526Z,17.80
2017-06-15T00:08:15.999Z,17.70
2017-06-15T00:10:44.234Z,17.70
2017-06-15T00:13:11.705Z,17.60
2017-06-15T00:15:39.182Z,17.60
2017-06-15T00:18:07.440Z,17.60
2017-06-15T00:20:34.910Z,17.50
2017-06-15T00:23:02.391Z,17.50
2017-06-15T00:25:29.858Z,17.50
2017-06-15T00:27:57.331Z,17.50
2017-06-15T00:30:24.803Z,17.40
2017-06-15T00:32:52.283Z,17.40
2017-06-15T00:35:19.750Z,17.40
2017-06-15T00:37:48.067Z,17.30
2017-06-15T00:40:15.537Z,17.30
2017-06-15T00:42:42.995Z,17.30
2017-06-15T00:45:10.462Z,17.30
2017-06-15T00:47:38.207Z,17.20
2017-06-15T00:50:05.678Z,17.20
2017-06-15T00:52:33.137Z,17.20
2017-06-15T00:55:00.611Z,17.10
2017-06-15T00:57:28.077Z,17.20
2017-06-15T00:59:55.542Z,17.20
2017-06-15T01:02:23.778Z,17.10
2017-06-15T01:04:51.247Z,17.00
2017-06-15T01:07:18.736Z,17.10
2017-06-15T01:09:46.965Z,17.10
2017-06-15T01:12:14.435Z,17.00
2017-06-15T01:14:41.911Z,17.10
2017-06-15T01:17:10.187Z,17.00
2017-06-15T01:19:38.431Z,17.00
2017-06-15T01:22:05.907Z,17.00
2017-06-15T01:24:33.378Z,17.00
2017-06-15T01:27:00.850Z,17.00
2017-06-15T01:29:28.316Z,17.00
2017-06-15T01:31:55.782Z,16.90
2017-06-15T01:34:23.253Z,16.90
2017-06-15T01:36:50.718Z,16.90
2017-06-15T01:39:18.263Z,17.00
2017-06-15T01:41:45.731Z,16.90
2017-06-15T01:44:13.207Z,16.90
2017-06-15T01:46:40.674Z,16.90
2017-06-15T01:49:08.137Z,16.80
2017-06-15T01:51:35.645Z,16.80
2017-06-15T01:54:03.129Z,16.80
2017-06-15T01:56:30.596Z,16.80
2017-06-15T01:58:58.062Z,16.70
2017-06-15T02:01:25.528Z,16.70
2017-06-15T02:03:54.046Z,16.70
2017-06-15T02:06:21.514Z,16.60
2017-06-15T02:08:48.982Z,16.70
2017-06-15T02:11:16.455Z,16.70
2017-06-15T02:13:43.915Z,16.70
2017-06-15T02:16:11.396Z,16.70
2017-06-15T02:18:39.643Z,16.60
2017-06-15T02:21:07.126Z,16.60
2017-06-15T02:23:34.591Z,16.60
2017-06-15T02:26:02.831Z,16.50
2017-06-15T02:28:30.294Z,16.50
2017-06-15T02:30:57.758Z,16.50
2017-06-15T02:33:25.227Z,16.50
2017-06-15T02:35:53.460Z,16.50
2017-06-15T02:38:20.928Z,16.40
2017-06-15T02:40:48.423Z,16.50
2017-06-15T02:43:16.661Z,16.40
2017-06-15T02:45:44.129Z,16.40
2017-06-15T02:48:11.598Z,16.40
2017-06-15T02:50:39.831Z,16.40
2017-06-15T02:53:07.298Z,16.30
2017-06-15T02:55:34.782Z,16.30
2017-06-15T02:58:02.267Z,16.30
2017-06-15T03:00:29.736Z,16.30
2017-06-15T03:02:57.210Z,16.30
2017-06-15T03:05:24.683Z,16.20
2017-06-15T03:07:52.159Z,16.20
2017-06-15T03:10:19.982Z,16.20
2017-06-15T03:12:47.449Z,16.20
2017-06-15T03:15:14.926Z,16.20
2017-06-15T03:17:42.402Z,16.20
2017-06-15T03:20:09.875Z,16.30
2017-06-15T03:22:37.342Z,16.30
2017-06-15T03:25:04.851Z,16.20
2017-06-15T03:27:32.381Z,16.30
2017-06-15T03:29:59.846Z,16.30
2017-06-15T03:32:27.339Z,16.20
2017-06-15T03:34:54.816Z,16.30
2017-06-15T03:37:22.286Z,16.30
2017-06-15T03:39:49.894Z,16.30
2017-06-15T03:42:17.382Z,16.30
2017-06-15T03:44:44.857Z,16.30
2017-06-15T03:47:12.323Z,16.40
2017-06-15T03:49:39.807Z,16.40
2017-06-15T03:52:07.281Z,16.40
2017-06-15T03:54:34.815Z,16.50
2017-06-15T03:57:02.320Z,16.60
2017-06-15T03:59:29.786Z,16.60
2017-06-15T04:01:57.259Z,16.70
2017-06-15T04:04:24.739Z,16.70
2017-06-15T04:06:52.214Z,16.80
2017-06-15T04:09:19.683Z,16.90
2017-06-15T04:11:47.163Z,17.00
2017-06-15T04:14:15.399Z,17.10
2017-06-15T04:16:42.870Z,17.00
2017-06-15T04:19:10.336Z,17.10
2017-06-15T04:21:37.851Z,17.20
2017-06-15T04:24:05.319Z,17.30
2017-06-15T04:26:32.798Z,17.30
2017-06-15T04:29:00.259Z,17.40
2017-06-15T04:31:27.734Z,17.50
2017-06-15T04:33:55.972Z,17.60
2017-06-15T04:36:23.443Z,17.60
2017-06-15T04:38:50.924Z,17.60
2017-06-15T04:41:19.171Z,17.70
2017-06-15T04:43:46.646Z,17.70
2017-06-15T04:46:14.119Z,17.80
2017-06-15T04:48:42.354Z,18.00
2017-06-15T04:51:09.822Z,18.00
2017-06-15T04:53:37.299Z,18.10
2017-06-15T04:56:04.768Z,18.10
2017-06-15T04:58:33.001Z,18.10
2017-06-15T05:01:00.479Z,18.10
2017-06-15T05:03:27.954Z,18.20
2017-06-15T05:05:56.215Z,18.30
2017-06-15T05:08:23.686Z,18.30
2017-06-15T05:10:51.922Z,18.60
2017-06-15T05:13:19.395Z,18.50
2017-06-15T05:15:46.954Z,18.70
2017-06-15T05:18:14.413Z,18.80
2017-06-15T05:20:41.976Z,18.80
2017-06-15T05:23:09.436Z,18.90
2017-06-15T05:25:37.702Z,19.00
2017-06-15T05:28:05.171Z,19.00
2017-06-15T05:30:33.415Z,19.20
2017-06-15T05:33:00.874Z,19.20
2017-06-15T05:35:28.459Z,19.30
2017-06-15T05:37:56.978Z,19.50
2017-06-15T05:40:24.451Z,19.40
2017-06-15T05:42:51.966Z,19.60
2017-06-15T05:45:20.231Z,19.70
2017-06-15T05:47:47.789Z,19.70
2017-06-15T05:50:15.267Z,19.70
2017-06-15T05:52:43.537Z,19.90
2017-06-15T05:55:11.799Z,19.90
2017-06-15T05:57:40.036Z,20.00
2017-06-15T06:00:07.526Z,19.90
2017-06-15T06:02:35.002Z,20.10
2017-06-15T06:05:02.485Z,20.20
2017-06-15T06:07:30.003Z,20.30
2017-06-15T06:09:58.273Z,20.30
2017-06-15T06:12:25.830Z,20.30
2017-06-15T06:14:53.390Z,20.40
2017-06-15T06:17:20.968Z,20.60
2017-06-15T06:19:49.194Z,20.70
2017-06-15T06:22:16.678Z,20.70
2017-06-15T06:24:44.143Z,20.80
2017-06-15T06:27:12.414Z,20.80
2017-06-15T06:29:40.685Z,20.70
2017-06-15T06:32:08.247Z,20.60
2017-06-15T06:34:35.807Z,20.70
2017-06-15T06:37:03.353Z,20.90
2017-06-15T06:39:30.930Z,21.00
2017-06-15T06:41:59.246Z,21.30
2017-06-15T06:44:26.721Z,21.20
2017-06-15T06:46:54.192Z,21.40
2017-06-15T06:49:21.754Z,21.40
2017-06-15T06:51:49.210Z,21.50
2017-06-15T06:54:16.783Z,21.20
2017-06-15T06:56:44.338Z,21.20
2017-06-15T06:59:11.903Z,21.30
2017-06-15T07:01:40.135Z,21.70
2017-06-15T07:04:07.659Z,21.60
2017-06-15T07:06:35.117Z,21.80
2017-06-15T07:09:02.587Z,22.00
2017-06-15T07:11:30.111Z,22.00
2017-06-15T07:13:58.338Z,22.20
2017-06-15T07:16:25.805Z,22.10
2017-06-15T07:18:53.290Z,22.20
2017-06-15T07:21:20.852Z,22.20
2017-06-15T07:23:48.458Z,22.20
2017-06-15T07:26:15.973Z,22.30
2017-06-15T07:28:43.527Z,22.50
2017-06-15T07:31:11.087Z,22.50
2017-06-15T07:33:38.653Z,22.10
2017-06-15T07:36:06.920Z,22.40
2017-06-15T07:38:34.483Z,22.40
2017-06-15T07:41:01.950Z,22.20
2017-06-15T07:43:30.173Z,22.30
2017-06-15T07:45:57.646Z,22.20
2017-06-15T07:48:25.125Z,22.50
2017-06-15T07:50:52.589Z,22.60
2017-06-15T07:53:20.834Z,22.90
2017-06-15T07:55:48.305Z,22.80
2017-06-15T07:58:15.871Z,22.80
2017-06-15T08:00:43.429Z,22.90
2017-06-15T08:03:10.989Z,22.80
2017-06-15T08:05:38.538Z,23.00
2017-06-15T08:08:06.023Z,23.10
2017-06-15T08:10:34.256Z,23.30
2017-06-15T08:13:01.738Z,23.30
2017-06-15T08:15:29.201Z,23.40
2017-06-15T08:17:57.429Z,23.50
2017-06-15T08:20:24.903Z,23.40
2017-06-15T08:22:52.379Z,23.50
2017-06-15T08:25:19.847Z,23.50
2017-06-15T08:27:48.069Z,23.60
2017-06-15T08:30:15.534Z,23.60
2017-06-15T08:32:42.998Z,23.70
2017-06-15T08:35:10.462Z,23.70
2017-06-15T08:37:37.927Z,23.70
2017-06-15T08:40:05.402Z,23.90
2017-06-15T08:42:33.631Z,23.80
2017-06-15T08:45:02.642Z,23.80
2017-06-15T08:47:30.106Z,24.00
2017-06-15T08:49:58.286Z,24.20
2017-06-15T08:52:25.750Z,24.30
2017-06-15T08:54:53.218Z,24.40
2017-06-15T08:57:21.460Z,24.40
2017-06-15T08:59:48.982Z,24.40
2017-06-15T09:02:16.487Z,24.60
2017-06-15T09:04:43.947Z,24.60
2017-06-15T09:07:11.418Z,24.70
2017-06-15T09:09:39.672Z,25.10
2017-06-15T09:12:07.142Z,25.00
2017-06-15T09:14:35.396Z,25.30
2017-06-15T09:17:02.864Z,25.20
2017-06-15T09:19:30.321Z,25.40
2017-06-15T09:21:57.796Z,25.30
2017-06-15T09:24:26.049Z,25.40
2017-06-15T09:26:53.610Z,25.40
2017-06-15T09:29:21.170Z,25.10
2017-06-15T09:31:48.643Z,25.00
2017-06-15T09:34:16.893Z,25.10
2017-06-15T09:36:44.475Z,25.10
2017-06-15T09:39:12.743Z,25.40
2017-06-15T09:41:40.211Z,25.30
2017-06-15T09:44:08.462Z,26.60
2017-06-15T09:46:36.029Z,26.60
2017-06-15T09:49:03.587Z,26.80
2017-06-15T09:51:31.144Z,26.80
2017-06-15T09:54:03.216Z,26.60
2017-06-15T09:56:31.453Z,25.60
2017-06-15T09:58:58.939Z,25.60
2017-06-15T10:01:26.493Z,25.50
2017-06-15T10:03:54.049Z,25.60
2017-06-15T10:06:21.614Z,25.50
2017-06-15T10:08:49.083Z,25.40
2017-06-15T10:11:17.310Z,25.70
2017-06-15T10:13:44.781Z,25.60
2017-06-15T10:16:12.253Z,25.90
2017-06-15T10:18:39.829Z,25.80
2017-06-15T10:21:08.147Z,26.40
2017-06-15T10:23:35.655Z,26.30
2017-06-15T10:26:03.127Z,26.40
2017-06-15T10:28:31.387Z,26.60
2017-06-15T10:30:58.938Z,26.50
2017-06-15T10:33:26.408Z,26.80
2017-06-15T10:35:53.877Z,26.90
2017-06-15T10:38:22.102Z,26.30
2017-06-15T10:40:49.565Z,26.30
2017-06-15T10:43:17.148Z,26.40
2017-06-15T10:45:44.701Z,26.70
2017-06-15T10:48:12.272Z,26.90
2017-06-15T10:50:39.827Z,27.10
2017-06-15T10:53:07.391Z,27.10
2017-06-15T10:55:34.947Z,27.10
2017-06-15T10:58:02.497Z,27.20
2017-06-15T11:00:29.962Z,27.10
2017-06-15T11:02:58.209Z,27.70
2017-06-15T11:05:25.794Z,27.70
2017-06-15T11:07:53.341Z,28.00
2017-06-15T11:10:20.901Z,27.90
2017-06-15T11:12:48.462Z,28.10
2017-06-15T11:15:15.931Z,28.40
2017-06-15T11:17:44.170Z,28.80
2017-06-15T11:20:11.635Z,28.70
2017-06-15T11:22:39.112Z,28.80
2017-06-15T11:25:06.675Z,29.00
2017-06-15T11:27:34.915Z,29.10
2017-06-15T11:30:02.375Z,29.00
2017-06-15T11:32:29.863Z,28.80
2017-06-15T11:34:57.325Z,29.00
2017-06-15T11:37:25.599Z,28.70
2017-06-15T11:39:53.917Z,28.40
2017-06-15T11:42:21.388Z,28.40
2017-06-15T11:44:48.873Z,28.60
2017-06-15T11:47:16.434Z,28.60
2017-06-15T11:49:43.994Z,28.70
2017-06-15T11:52:11.555Z,29.00
2017-06-15T11:54:39.118Z,29.40
2017-06-15T11:57:06.669Z,29.60
2017-06-15T11:59:34.147Z,29.70
2017-06-15T12:02:02.383Z,29.90
2017-06-15T12:04:29.857Z,29.90
2017-06-15T12:06:57.325Z,29.80
2017-06-15T12:09:24.793Z,29.40
2017-06-15T12:11:53.032Z,29.10
2017-06-15T12:14:20.508Z,29.00
2017-06-15T12:16:48.058Z,28.90
2017-06-15T12:19:15.623Z,28.90
2017-06-15T12:21:43.185Z,29.10
2017-06-15T12:24:10.646Z,29.40
2017-06-15T12:26:38.880Z,30.20
2017-06-15T12:29:06.477Z,30.10
2017-06-15T12:31:34.035Z,30.10
2017-06-15T12:34:01.589Z,30.20
2017-06-15T12:36:29.163Z,30.20
2017-06-15T12:38:57.393Z,30.70
2017-06-15T12:41:24.873Z,30.60
2017-06-15T12:43:52.346Z,30.80
2017-06-15T12:46:20.620Z,31.10
2017-06-15T12:48:48.899Z,31.10
2017-06-15T12:51:17.161Z,31.00
2017-06-15T12:53:44.638Z,31.00
2017-06-15T12:56:12.905Z,31.10
2017-06-15T12:58:41.182Z,31.20
2017-06-15T13:01:09.445Z,31.10
2017-06-15T13:03:37.017Z,31.00
2017-06-15T13:06:05.270Z,30.80
2017-06-15T13:08:32.889Z,30.70
2017-06-15T13:11:00.370Z,30.80
2017-06-15T13:13:27.971Z,30.90
2017-06-15T13:15:56.337Z,31.10
2017-06-15T13:18:23.903Z,31.00
2017-06-15T13:20:52.167Z,31.00
2017-06-15T13:23:19.752Z,31.00
2017-06-15T13:25:47.975Z,30.40
2017-06-15T13:28:15.558Z,30.40
2017-06-15T13:30:43.128Z,30.20
2017-06-15T13:33:11.378Z,30.60
2017-06-15T13:35:38.842Z,30.50
2017-06-15T13:38:06.411Z,30.90
2017-06-15T13:40:33.871Z,31.30
2017-06-15T13:43:01.426Z,31.50
2017-06-15T13:45:28.993Z,31.50
2017-06-15T13:47:57.225Z,30.90
2017-06-15T13:50:24.710Z,30.90
2017-06-15T13:52:52.269Z,31.10
2017-06-15T13:55:19.847Z,30.80
2017-06-15T13:57:48.075Z,30.40
2017-06-15T14:00:15.557Z,30.30
2017-06-15T14:02:43.071Z,30.10
2017-06-15T14:05:10.571Z,30.20
2017-06-15T14:07:38.137Z,30.50
2017-06-15T14:10:05.689Z,31.00
2017-06-15T14:12:33.255Z,31.30
2017-06-15T14:15:00.815Z,31.50
2017-06-15T14:17:28.949Z,31.70
2017-06-15T14:19:56.496Z,31.90
2017-06-15T14:22:23.970Z,32.00
2017-06-15T14:24:51.439Z,31.90
2017-06-15T14:27:18.905Z,31.90
2017-06-15T14:29:46.382Z,32.00
2017-06-15T14:32:14.652Z,31.40
2017-06-15T14:34:42.207Z,31.30
2017-06-15T14:37:09.776Z,31.30
2017-06-15T14:39:38.010Z,31.70
2017-06-15T14:42:05.485Z,31.60
2017-06-15T14:44:33.045Z,31.90
2017-06-15T14:47:00.615Z,32.00
2017-06-15T14:49:28.080Z,32.30
2017-06-15T14:51:56.316Z,32.30
2017-06-15T14:54:23.797Z,32.30
2017-06-15T14:56:51.356Z,31.60
2017-06-15T14:59:18.920Z,30.60
2017-06-15T15:01:46.425Z,30.40
2017-06-15T15:04:13.932Z,30.50
2017-06-15T15:06:41.435Z,30.90
2017-06-15T15:09:20.848Z,31.20
2017-06-15T15:11:49.097Z,31.70
2017-06-15T15:14:16.658Z,31.70
2017-06-15T15:16:44.213Z,31.90
2017-06-15T15:19:11.682Z,31.90
2017-06-15T15:21:39.231Z,31.60
2017-06-15T15:24:06.792Z,31.40
2017-06-15T15:26:34.249Z,31.30
2017-06-15T15:29:01.806Z,31.20
2017-06-15T15:31:29.377Z,31.20
2017-06-15T15:33:57.606Z,31.70
2017-06-15T15:36:25.097Z,31.60
2017-06-15T15:38:52.557Z,31.70
2017-06-15T15:41:20.024Z,31.70
2017-06-15T15:43:48.282Z,31.60
2017-06-15T15:46:15.894Z,31.60
2017-06-15T15:48:43.411Z,31.40
2017-06-15T15:51:10.966Z,31.20
2017-06-15T15:53:38.521Z,31.20
2017-06-15T15:56:06.081Z,31.00
2017-06-15T15:58:33.554Z,30.90
2017-06-15T16:01:01.799Z,30.60
2017-06-15T16:03:29.266Z,30.60
2017-06-15T16:05:56.877Z,30.40
2017-06-15T16:08:24.383Z,30.40
2017-06-15T16:10:51.854Z,30.40
2017-06-15T16:13:20.114Z,30.60
2017-06-15T16:15:47.669Z,30.60
2017-06-15T16:18:15.230Z,30.70
2017-06-15T16:20:42.706Z,30.60
2017-06-15T16:23:10.965Z,30.30
2017-06-15T16:25:38.528Z,30.30
2017-06-15T16:28:06.813Z,30.40
2017-06-15T16:30:35.106Z,30.30
2017-06-15T16:33:03.346Z,30.00
2017-06-15T16:35:30.813Z,30.00
2017-06-15T16:37:59.082Z,29.90
2017-06-15T16:40:26.645Z,29.80
2017-06-15T16:42:54.111Z,29.80
2017-06-15T16:45:22.386Z,29.70
2017-06-15T16:47:50.662Z,29.60
2017-06-15T16:50:18.924Z,29.50
2017-06-15T16:52:46.486Z,29.50
2017-06-15T16:55:13.941Z,29.50
2017-06-15T16:57:41.424Z,29.40
2017-06-15T17:00:08.952Z,29.40
2017-06-15T17:02:36.506Z,29.30
2017-06-15T17:05:04.065Z,29.20
2017-06-15T17:07:31.532Z,29.20
2017-06-15T17:09:58.994Z,29.20
2017-06-15T17:12:27.218Z,29.10
2017-06-15T17:14:54.694Z,29.10
2017-06-15T17:17:22.159Z,29.20
2017-06-15T17:19:49.626Z,29.20
2017-06-15T17:22:17.095Z,29.00
2017-06-15T17:24:45.354Z,28.80
2017-06-15T17:27:12.918Z,28.80
2017-06-15T17:29:40.398Z,28.90
2017-06-15T17:32:08.749Z,28.80
2017-06-15T17:34:36.242Z,28.80
2017-06-15T17:37:03.769Z,28.80
2017-06-15T17:39:31.235Z,28.90
2017-06-15T17:41:59.595Z,28.90
2017-06-15T17:44:27.053Z,28.90
2017-06-15T17:46:54.609Z,28.90
2017-06-15T17:49:22.174Z,28.80
2017-06-15T17:51:49.729Z,28.70
2017-06-15T17:54:17.287Z,28.70
2017-06-15T17:56:44.845Z,28.50
2017-06-15T17:59:12.405Z,28.50
2017-06-15T18:01:40.831Z,28.30
2017-06-15T18:04:08.334Z,28.20
2017-06-15T18:06:35.850Z,28.10
2017-06-15T18:09:03.357Z,28.00
2017-06-15T18:11:30.850Z,28.00
2017-06-15T18:13:58.473Z,27.90
2017-06-15T18:16:26.034Z,27.80
2017-06-15T18:18:53.598Z,27.80
2017-06-15T18:21:21.103Z,27.80
2017-06-15T18:23:48.610Z,27.80
2017-06-15T18:26:16.073Z,27.70
2017-06-15T18:28:43.636Z,27.70
2017-06-15T18:31:11.898Z,27.60
2017-06-15T18:33:39.458Z,27.60
2017-06-15T18:36:07.030Z,27.60
2017-06-15T18:38:35.274Z,27.40
2017-06-15T18:41:02.804Z,27.30
2017-06-15T18:43:30.315Z,27.30
2017-06-15T18:45:57.782Z,27.30
2017-06-15T18:48:26.062Z,27.20
2017-06-15T18:50:54.318Z,27.10
2017-06-15T18:53:21.834Z,27.00
2017-06-15T18:55:49.537Z,26.90
2017-06-15T18:58:17.085Z,26.90
2017-06-15T19:00:44.650Z,26.90
2017-06-15T19:03:12.164Z,26.80
2017-06-15T19:05:39.623Z,26.70
2017-06-15T19:08:07.104Z,26.70
2017-06-15T19:10:34.577Z,26.60
2017-06-15T19:13:02.143Z,26.50
2017-06-15T19:15:29.703Z,26.50
2017-06-15T19:17:57.943Z,26.30
2017-06-15T19:20:25.425Z,26.30
2017-06-15T19:22:52.992Z,26.20
2017-06-15T19:25:20.477Z,26.20
2017-06-15T19:27:48.055Z,26.10
2017-06-15T19:30:15.572Z,26.10
2017-06-15T19:32:43.819Z,26.00
2017-06-15T19:35:11.300Z,25.90
2017-06-15T19:37:38.856Z,25.90
2017-06-15T19:40:06.318Z,25.90
2017-06-15T19:42:34.586Z,25.80
2017-06-15T19:45:02.059Z,25.70
2017-06-15T19:47:30.285Z,25.70
2017-06-15T19:49:57.791Z,25.60
2017-06-15T19:52:26.049Z,25.60
2017-06-15T19:54:53.609Z,25.50
2017-06-15T19:57:21.083Z,25.50
2017-06-15T19:59:49.342Z,25.40
2017-06-15T20:02:16.809Z,25.40
2017-06-15T20:04:45.072Z,25.30
2017-06-15T20:07:12.537Z,25.20
2017-06-15T20:09:40.797Z,25.30
2017-06-15T20:12:08.353Z,25.20
2017-06-15T20:14:35.918Z,25.20
2017-06-15T20:17:03.481Z,25.20
2017-06-15T20:19:31.036Z,25.20
2017-06-15T20:21:58.502Z,25.10
2017-06-15T20:24:26.820Z,25.10
2017-06-15T20:26:54.289Z,25.00
2017-06-15T20:29:21.761Z,25.10
2017-06-15T20:31:49.221Z,25.00
2017-06-15T20:34:16.711Z,25.00
2017-06-15T20:36:44.934Z,25.00
2017-06-15T20:39:12.402Z,24.90
2017-06-15T20:41:39.866Z,24.90
2017-06-15T20:44:07.435Z,24.90
2017-06-15T20:46:34.905Z,24.90
2017-06-15T20:49:02.365Z,24.90
2017-06-15T20:51:30.614Z,24.90
2017-06-15T20:53:58.086Z,24.80
2017-06-15T20:56:25.648Z,24.90
2017-06-15T20:58:53.232Z,24.90
2017-06-15T21:01:20.708Z,25.00
2017-06-15T21:03:48.182Z,25.00
2017-06-15T21:06:15.670Z,25.00
2017-06-15T21:08:43.131Z,25.00
2017-06-15T21:11:10.691Z,24.90
2017-06-15T21:13:38.285Z,24.90
2017-06-15T21:16:06.521Z,24.80
2017-06-15T21:18:34.080Z,24.70
2017-06-15T21:21:01.642Z,24.80
2017-06-15T21:23:29.196Z,24.80
2017-06-15T21:25:56.759Z,24.70
2017-06-15T21:28:24.321Z,24.80
2017-06-15T21:30:51.781Z,24.90
2017-06-15T21:33:19.253Z,24.80
2017-06-15T21:35:47.478Z,24.70
2017-06-15T21:38:14.961Z,24.60
2017-06-15T21:40:42.522Z,24.70
2017-06-15T21:43:09.982Z,24.70
2017-06-15T21:45:37.544Z,24.70
2017-06-15T21:48:05.814Z,24.50
2017-06-15T21:50:33.369Z,24.50
2017-06-15T21:53:00.862Z,24.30
2017-06-15T21:55:28.383Z,23.90
2017-06-15T21:57:55.859Z,23.60
2017-06-15T22:00:24.217Z,23.00
2017-06-15T22:02:52.194Z,22.90
2017-06-15T22:05:20.459Z,22.50
2017-06-15T22:07:47.917Z,22.50
2017-06-15T22:10:15.470Z,22.40
2017-06-15T22:12:42.939Z,22.20
2017-06-15T22:15:10.489Z,22.20
2017-06-15T22:17:38.045Z,22.10
2017-06-15T22:20:05.614Z,22.00
2017-06-15T22:22:33.165Z,21.90
2017-06-15T22:25:00.735Z,21.70
2017-06-15T22:27:29.009Z,21.20
2017-06-15T22:29:56.561Z,21.20
2017-06-15T22:32:24.126Z,21.00
2017-06-15T22:34:52.392Z,20.60
2017-06-15T22:37:19.952Z,20.50
2017-06-15T22:39:47.411Z,20.50
2017-06-15T22:42:14.893Z,20.40
2017-06-15T22:44:42.429Z,20.30
2017-06-15T22:47:09.893Z,20.20
2017-06-15T22:49:38.114Z,20.10
2017-06-15T22:52:05.582Z,20.10
2017-06-15T22:54:33.042Z,20.20
2017-06-15T22:57:00.513Z,20.40
2017-06-15T22:59:27.973Z,20.60
2017-06-15T23:01:55.442Z,20.70
2017-06-15T23:04:23.035Z,20.80
2017-06-15T23:06:50.553Z,20.90
2017-06-15T23:09:18.025Z,21.00
2017-06-15T23:11:46.295Z,20.80
2017-06-15T23:14:13.852Z,20.70
2017-06-15T23:16:41.414Z,20.60
2017-06-15T23:19:09.686Z,20.50
2017-06-15T23:21:37.152Z,20.40
2017-06-15T23:24:05.415Z,20.60
2017-06-15T23:26:32.898Z,20.50
2017-06-15T23:29:00.375Z,20.70
2017-06-15T23:31:27.934Z,20.70
2017-06-15T23:33:55.407Z,20.80
2017-06-15T23:36:22.907Z,21.00
2017-06-15T23:38:51.187Z,21.00
2017-06-15T23:41:19.545Z,21.00
2017-06-15T23:43:47.023Z,20.90
2017-06-15T23:46:15.255Z,21.00
2017-06-15T23:48:42.738Z,21.00
2017-06-15T23:51:10.300Z,21.00
2017-06-15T23:53:37.861Z,21.00
2017-06-15T23:56:05.335Z,20.90
2017-06-15T23:58:33.607Z,20.60
